Time;durP1;ratioP1;P1;durP2;ratioP2;P2;SDS_P1;SDS_P2;PMS_P1;PMS_P2;Temp;Humidity;BMP_temperature;BMP_pressure;BME280_temperature;BME280_humidity;BME280_pressure;Samples;Min_cycle;Max_cycle;Signal;HPM_P1;HPM_P2
2021/11/10 00:00:45;;;;;;;11.17;7.77;;;;;;;16.27;53.50;100431.72;5085332;28;20039;-70
2021/11/10 00:03:12;;;;;;;14.80;9.03;;;;;;;16.32;53.62;100459.75;5100916;28;20055;-71
2021/11/10 00:05:40;;;;;;;17.27;8.67;;;;;;;16.34;53.51;100456.59;5110250;28;20127;-72
2021/11/10 00:08:08;;;;;;;23.37;11.87;;;;;;;16.46;53.06;100456.03;5103048;28;20487;-70
2021/11/10 00:10:36;;;;;;;41.73;20.20;;;;;;;16.46;52.93;100461.66;5091032;28;20127;-70
2021/11/10 00:13:21;;;;;;;37.37;20.13;;;;;;;16.35;53.00;100464.75;5083855;28;20136;-74
2021/11/10 00:15:51;;;;;;;18.93;11.90;;;;;;;16.25;53.17;100459.38;5081691;28;20087;-71
2021/11/10 00:18:19;;;;;;;22.10;10.82;;;;;;;16.11;53.24;100450.16;5070960;28;20135;-69
2021/11/10 00:20:47;;;;;;;18.90;10.13;;;;;;;16.02;53.64;100457.72;5069432;28;20655;-69
2021/11/10 00:23:15;;;;;;;21.90;11.97;;;;;;;15.95;53.84;100460.13;5068485;28;20076;-69
2021/11/10 00:25:42;;;;;;;19.60;10.73;;;;;;;15.86;53.93;100463.72;5054707;28;20185;-68
2021/11/10 00:28:09;;;;;;;20.20;10.00;;;;;;;15.68;54.23;100456.25;5057386;28;20132;-68
2021/11/10 00:30:35;;;;;;;18.53;9.37;;;;;;;15.57;55.01;100461.25;5069622;28;20131;-68
2021/11/10 00:33:03;;;;;;;13.80;8.20;;;;;;;15.34;55.68;100454.72;5070210;28;20075;-68
2021/11/10 00:35:30;;;;;;;12.77;8.57;;;;;;;15.21;56.29;100463.19;5069719;28;20091;-66
2021/11/10 00:37:57;;;;;;;18.07;10.20;;;;;;;14.95;56.99;100443.22;5063791;28;20075;-66
2021/11/10 00:40:23;;;;;;;15.07;8.13;;;;;;;14.89;57.60;100456.53;5067316;28;20144;-61
2021/11/10 00:42:50;;;;;;;14.83;9.20;;;;;;;14.76;58.05;100451.75;5072490;28;20135;-62
2021/11/10 00:45:17;;;;;;;19.43;9.13;;;;;;;14.60;58.75;100454.03;5081402;28;20127;-62
2021/11/10 00:47:44;;;;;;;9.13;5.90;;;;;;;14.48;59.25;100448.03;5072150;28;20389;-58
2021/11/10 00:50:11;;;;;;;16.67;8.53;;;;;;;14.27;59.67;100434.34;5074689;28;20042;-64
2021/11/10 00:52:38;;;;;;;14.50;8.00;;;;;;;13.68;60.03;100351.72;5072617;28;20087;-67
2021/11/10 00:55:06;;;;;;;19.63;8.37;;;;;;;14.20;60.61;100450.78;5074017;28;20377;-63
2021/11/10 00:57:33;;;;;;;23.30;8.87;;;;;;;14.09;60.53;100432.44;5072230;28;20472;-69
2021/11/10 00:59:59;;;;;;;18.83;9.73;;;;;;;14.05;60.61;100436.97;5074759;28;20068;-66
2021/11/10 01:02:26;;;;;;;23.57;9.53;;;;;;;13.92;60.79;100411.38;5073095;28;20124;-65
2021/11/10 01:04:54;;;;;;;19.23;10.33;;;;;;;14.01;60.77;100438.75;5069964;28;20045;-66
2021/11/10 01:07:25;;;;;;;23.97;10.50;;;;;;;13.99;60.91;100434.28;5070994;28;20053;-65
2021/11/10 01:09:58;;;;;;;21.83;9.83;;;;;;;14.02;60.96;100431.97;5076911;28;20083;-69
2021/11/10 01:12:25;;;;;;;23.03;11.10;;;;;;;14.00;61.05;100429.50;5073802;28;20051;-72
2021/11/10 01:14:52;;;;;;;19.67;10.60;;;;;;;13.96;61.12;100431.25;5054941;28;20139;-66
2021/11/10 01:17:19;;;;;;;17.70;9.63;;;;;;;13.93;61.18;100429.88;5092025;28;20076;-64
2021/11/10 01:19:46;;;;;;;20.50;10.00;;;;;;;13.72;61.63;100400.50;5093652;28;20081;-63
2021/11/10 01:22:13;;;;;;;21.03;10.23;;;;;;;13.87;61.53;100414.25;5080077;28;20063;-63
2021/11/10 01:24:40;;;;;;;20.37;10.23;;;;;;;13.84;61.70;100434.50;5083808;28;20113;-64
2021/11/10 01:27:08;;;;;;;16.70;9.43;;;;;;;13.77;61.52;100413.59;5094532;28;20127;-64
2021/11/10 01:29:35;;;;;;;14.43;8.70;;;;;;;13.82;61.56;100422.78;5088558;28;20075;-69
2021/11/10 01:32:04;;;;;;;16.17;9.43;;;;;;;13.76;61.44;100409.97;5081946;28;20040;-66
2021/11/10 01:34:31;;;;;;;21.63;12.13;;;;;;;13.78;61.37;100416.13;5091685;28;20474;-63
2021/11/10 01:36:57;;;;;;;17.47;10.83;;;;;;;13.91;61.12;100426.56;5087000;28;20076;-68
2021/11/10 01:39:25;;;;;;;23.23;11.13;;;;;;;14.01;60.75;100421.91;5094489;28;20067;-68
2021/11/10 01:42:01;;;;;;;22.73;12.17;;;;;;;13.97;60.76;100402.84;5084420;28;20054;-69
2021/11/10 01:44:30;;;;;;;26.10;11.77;;;;;;;14.10;60.44;100420.91;5093079;28;20083;-71
2021/11/10 01:46:59;;;;;;;23.13;11.93;;;;;;;14.23;60.04;100414.47;5090292;28;20135;-70
2021/11/10 01:49:26;;;;;;;19.30;10.93;;;;;;;14.32;59.47;100403.34;5090613;28;20127;-69
2021/11/10 01:51:55;;;;;;;19.70;11.60;;;;;;;14.54;59.07;100413.94;5088203;28;20423;-67
2021/11/10 01:54:25;;;;;;;16.03;9.63;;;;;;;14.63;58.73;100428.09;5089346;28;20068;-68
2021/11/10 01:56:53;;;;;;;24.35;10.95;;;;;;;14.69;58.46;100421.22;5092983;28;20264;-71
2021/11/10 01:59:28;;;;;;;21.13;11.80;;;;;;;14.72;58.14;100417.81;5076670;28;20138;-71
2021/11/10 02:01:55;;;;;;;19.93;11.73;;;;;;;14.68;58.23;100419.56;5085139;28;20044;-68
2021/11/10 02:04:25;;;;;;;19.07;10.53;;;;;;;14.72;58.27;100417.81;5069649;28;20048;-72
2021/11/10 02:06:53;;;;;;;20.23;10.65;;;;;;;14.73;58.24;100419.47;5082405;28;20094;-71
2021/11/10 02:09:23;;;;;;;18.93;9.13;;;;;;;14.78;58.00;100422.19;5077704;28;20460;-75
2021/11/10 02:11:52;;;;;;;19.65;10.35;;;;;;;14.76;57.83;100416.03;5093648;28;20127;-76
2021/11/10 02:14:21;;;;;;;21.52;11.65;;;;;;;14.76;57.78;100420.81;5089182;28;20101;-77
2021/11/10 02:16:50;;;;;;;18.97;9.63;;;;;;;14.77;57.70;100420.53;5077620;28;20080;-76
2021/11/10 02:19:18;;;;;;;18.87;9.90;;;;;;;14.71;57.64;100407.72;5045171;28;20293;-77
2021/11/10 02:21:52;;;;;;;16.10;9.00;;;;;;;14.71;57.81;100410.53;5066230;28;20528;-73
2021/11/10 02:24:21;;;;;;;23.43;10.77;;;;;;;14.69;57.86;100413.63;5069426;28;20052;-71
2021/11/10 02:26:48;;;;;;;19.10;11.07;;;;;;;14.72;57.79;100414.16;5072703;28;20127;-75
2021/11/10 02:29:19;;;;;;;13.77;7.33;;;;;;;14.71;57.68;100406.88;5073266;28;20132;-72
2021/11/10 02:31:46;;;;;;;15.53;7.43;;;;;;;14.79;57.66;100415.41;5067994;28;20056;-72
2021/11/10 02:34:14;;;;;;;11.83;6.97;;;;;;;14.84;57.53;100415.31;5072722;28;20106;-65
2021/11/10 02:36:41;;;;;;;14.27;6.73;;;;;;;14.83;57.62;100413.63;5074117;28;20582;-65
2021/11/10 02:39:12;;;;;;;13.63;7.20;;;;;;;14.85;57.57;100408.53;5070055;28;20127;-68
2021/11/10 02:41:39;;;;;;;19.30;7.80;;;;;;;14.83;57.34;100395.94;5076627;28;20052;-70
2021/11/10 02:44:06;;;;;;;18.93;7.53;;;;;;;14.84;57.39;100398.44;5080953;28;20167;-70
2021/11/10 02:46:34;;;;;;;14.77;7.97;;;;;;;14.88;57.27;100396.66;5072322;28;20540;-69
2021/11/10 02:49:04;;;;;;;12.60;5.73;;;;;;;14.92;56.85;100392.06;5078156;28;20068;-67
2021/11/10 02:51:31;;;;;;;10.27;5.75;;;;;;;14.74;57.10;100364.94;5075740;28;20434;-67
2021/11/10 02:53:58;;;;;;;11.27;6.53;;;;;;;14.86;56.79;100379.28;5072120;28;20091;-67
2021/11/10 02:56:24;;;;;;;13.27;6.77;;;;;;;14.90;56.91;100391.53;5070570;28;20044;-69
2021/11/10 02:58:51;;;;;;;13.00;6.57;;;;;;;14.76;57.48;100395.53;5077509;28;20143;-66
2021/11/10 03:01:18;;;;;;;12.37;7.57;;;;;;;14.64;57.40;100387.63;5067319;28;20131;-65
2021/11/10 03:03:45;;;;;;;12.37;7.87;;;;;;;14.43;57.97;100381.53;5070830;28;20488;-65
2021/11/10 03:06:12;;;;;;;18.43;8.70;;;;;;;14.29;58.39;100381.53;5052017;28;20485;-65
2021/11/10 03:08:42;;;;;;;12.07;7.57;;;;;;;14.06;59.08;100382.50;5071369;28;20135;-67
2021/11/10 03:11:09;;;;;;;10.32;5.88;;;;;;;13.75;60.27;100394.28;5070471;28;20106;-66
2021/11/10 03:13:39;;;;;;;14.43;7.63;;;;;;;13.59;60.88;100402.09;5066881;28;20072;-60
2021/11/10 03:16:06;;;;;;;16.60;7.50;;;;;;;13.58;60.91;100382.75;5076206;28;20048;-60
2021/11/10 03:18:33;;;;;;;9.53;5.97;;;;;;;13.58;60.87;100383.59;5075401;28;20193;-60
2021/11/10 03:21:00;;;;;;;8.63;5.30;;;;;;;13.57;60.73;100387.50;5067547;28;20128;-62
2021/11/10 03:23:27;;;;;;;8.93;3.73;;;;;;;13.39;61.55;100379.97;5070529;28;20135;-68
2021/11/10 03:25:54;;;;;;;8.40;4.10;;;;;;;13.21;62.43;100384.41;5074891;28;20068;-67
2021/11/10 03:28:20;;;;;;;4.43;3.13;;;;;;;13.11;62.66;100385.38;5072190;28;20135;-70
2021/11/10 03:30:47;;;;;;;3.00;2.17;;;;;;;12.90;63.63;100369.97;5072333;28;20044;-69
2021/11/10 03:33:14;;;;;;;4.77;3.40;;;;;;;12.78;64.29;100379.63;5074154;28;20080;-69
2021/11/10 03:35:41;;;;;;;2.77;2.53;;;;;;;12.76;64.27;100369.88;5071540;28;20536;-72
2021/11/10 03:38:08;;;;;;;2.57;2.30;;;;;;;12.66;64.60;100367.19;5068496;28;20128;-75
2021/11/10 03:40:34;;;;;;;3.70;3.17;;;;;;;12.68;64.72;100378.94;5073980;28;20131;-75
2021/11/10 03:43:01;;;;;;;2.27;2.07;;;;;;;12.68;64.85;100381.72;5051757;28;20045;-74
2021/11/10 03:45:28;;;;;;;3.50;2.37;;;;;;;12.68;64.84;100384.53;5057872;28;20152;-68
2021/11/10 03:47:57;;;;;;;6.17;2.80;;;;;;;12.57;64.92;100364.22;5082427;28;20495;-68
2021/11/10 03:50:23;;;;;;;7.00;2.47;;;;;;;12.61;64.84;100373.69;5079779;28;20128;-69
2021/11/10 03:52:50;;;;;;;4.13;2.57;;;;;;;12.70;64.95;100382.28;5072737;28;20135;-69
2021/11/10 03:55:17;;;;;;;4.50;3.17;;;;;;;12.70;64.43;100357.06;5071210;28;20131;-69
2021/11/10 03:57:44;;;;;;;2.43;1.67;;;;;;;12.85;64.64;100378.44;5078462;28;20459;-69
2021/11/10 04:00:12;;;;;;;2.13;1.80;;;;;;;12.88;64.37;100370.25;5070080;28;20078;-70
2021/11/10 04:02:38;;;;;;;3.47;2.00;;;;;;;13.05;63.87;100384.59;5083906;28;20459;-77
2021/11/10 04:05:06;;;;;;;4.40;2.27;;;;;;;13.16;63.56;100385.31;5071412;28;20080;-78
2021/11/10 04:07:33;;;;;;;5.13;2.80;;;;;;;13.03;63.32;100352.41;5056170;28;20124;-78
2021/11/10 04:09:59;;;;;;;3.40;2.17;;;;;;;13.36;62.87;100392.59;5068978;28;20048;-68
2021/11/10 04:12:26;;;;;;;1.87;1.50;;;;;;;13.51;62.28;100388.75;5066103;28;20448;-69
2021/11/10 04:14:53;;;;;;;4.30;3.23;;;;;;;13.68;62.05;100405.88;5063710;28;20130;-71
2021/11/10 04:17:20;;;;;;;2.70;1.60;;;;;;;13.73;61.68;100407.75;5081424;28;20095;-63
2021/11/10 04:19:47;;;;;;;2.43;1.70;;;;;;;13.45;61.52;100356.31;5082069;28;20131;-62
2021/11/10 04:22:13;;;;;;;2.50;1.70;;;;;;;13.73;61.09;100402.16;5073958;28;20072;-62
2021/11/10 04:24:40;;;;;;;4.73;2.53;;;;;;;13.75;61.06;100411.94;5074157;28;20151;-62
2021/11/10 04:27:07;;;;;;;5.73;2.47;;;;;;;13.79;60.98;100402.91;5072614;28;20136;-64
2021/11/10 04:29:34;;;;;;;5.00;3.20;;;;;;;13.90;60.57;100413.66;5071989;28;20488;-63
2021/11/10 04:32:01;;;;;;;8.27;3.70;;;;;;;14.03;60.23;100419.63;5070700;28;20097;-62
2021/11/10 04:34:28;;;;;;;7.33;3.87;;;;;;;14.06;59.59;100405.81;5074142;28;20076;-61
2021/11/10 04:36:55;;;;;;;6.67;3.93;;;;;;;14.14;59.57;100421.09;5069329;28;20131;-62
2021/11/10 04:39:26;;;;;;;8.77;3.97;;;;;;;14.06;59.60;100407.78;5073560;28;20427;-62
2021/11/10 04:41:52;;;;;;;6.30;3.30;;;;;;;13.98;59.49;100410.16;5062065;28;20051;-61
2021/11/10 04:44:19;;;;;;;6.97;3.33;;;;;;;14.11;59.49;100427.34;5074546;28;20127;-62
2021/11/10 04:46:46;;;;;;;7.07;3.40;;;;;;;14.12;59.34;100427.06;5073247;28;20127;-62
2021/11/10 04:49:16;;;;;;;1.83;1.37;;;;;;;13.91;59.51;100406.91;5085802;28;20127;-61
2021/11/10 04:51:44;;;;;;;5.70;3.03;;;;;;;13.98;59.52;100426.16;5073024;28;20496;-62
2021/11/10 04:54:14;;;;;;;3.60;1.67;;;;;;;13.93;59.60;100429.88;5077511;28;20131;-62
2021/11/10 04:56:40;;;;;;;3.83;2.33;;;;;;;13.81;59.97;100440.75;5079122;28;20064;-62
2021/11/10 04:59:07;;;;;;;1.80;1.13;;;;;;;13.63;60.11;100410.72;5073529;28;20128;-62
2021/11/10 05:01:38;;;;;;;1.93;1.57;;;;;;;13.63;60.41;100430.38;5075498;28;20131;-62
2021/11/10 05:04:05;;;;;;;1.27;1.10;;;;;;;13.49;60.72;100433.09;5072528;28;20102;-62
2021/11/10 05:06:32;;;;;;;2.80;2.43;;;;;;;13.38;61.03;100424.00;5073358;28;20365;-62
2021/11/10 05:08:59;;;;;;;3.23;1.67;;;;;;;13.40;60.97;100444.19;5081980;28;20147;-61
2021/11/10 05:11:26;;;;;;;6.30;2.10;;;;;;;13.31;61.09;100445.16;5073121;28;20174;-63
2021/11/10 05:13:53;;;;;;;2.77;2.33;;;;;;;13.23;61.69;100443.81;5080434;28;20074;-65
2021/11/10 05:16:20;;;;;;;9.93;2.20;;;;;;;13.20;61.69;100441.63;5075423;28;20156;-62
2021/11/10 05:18:46;;;;;;;2.43;1.80;;;;;;;13.18;61.67;100457.91;5084882;28;20131;-62
2021/11/10 05:21:13;;;;;;;1.83;1.60;;;;;;;13.11;61.62;100454.63;5071859;28;20048;-62
2021/11/10 05:23:40;;;;;;;5.00;2.33;;;;;;;13.15;61.66;100459.34;5073389;28;20127;-62
2021/11/10 05:26:07;;;;;;;2.90;2.03;;;;;;;13.17;61.39;100462.69;5071730;28;20045;-66
2021/11/10 05:28:34;;;;;;;4.60;2.47;;;;;;;13.20;61.39;100455.66;5073525;28;20110;-64
2021/11/10 05:31:00;;;;;;;2.83;1.67;;;;;;;13.15;61.39;100459.34;5065506;28;20045;-63
2021/11/10 05:33:28;;;;;;;2.47;2.03;;;;;;;13.16;61.26;100471.38;5073935;28;20157;-63
2021/11/10 05:35:55;;;;;;;2.73;2.17;;;;;;;13.09;61.44;100456.88;5071515;28;20580;-62
2021/11/10 05:38:21;;;;;;;4.43;1.90;;;;;;;13.17;61.30;100470.25;5066656;28;20061;-65
2021/11/10 05:40:49;;;;;;;2.97;1.93;;;;;;;13.07;61.55;100471.22;5070197;28;20138;-63
2021/11/10 05:43:16;;;;;;;3.73;2.10;;;;;;;13.01;61.59;100464.00;5061476;28;20579;-66
2021/11/10 05:45:43;;;;;;;3.03;0.90;;;;;;;12.85;61.64;100437.28;5062638;28;20122;-61
2021/11/10 05:48:10;;;;;;;2.17;1.33;;;;;;;12.96;61.68;100464.91;5076671;28;20070;-61
2021/11/10 05:50:37;;;;;;;3.53;2.10;;;;;;;12.99;61.70;100475.53;5073605;28;20079;-61
2021/11/10 05:53:04;;;;;;;3.03;1.73;;;;;;;12.96;61.84;100470.50;5071834;28;20583;-61
2021/11/10 05:55:31;;;;;;;2.63;2.07;;;;;;;12.96;61.87;100478.94;5072989;28;20477;-61
2021/11/10 05:57:58;;;;;;;3.13;1.57;;;;;;;13.00;61.71;100479.16;5072638;28;20062;-63
2021/11/10 06:00:24;;;;;;;2.50;1.87;;;;;;;12.76;61.78;100462.34;5074155;28;20143;-63
2021/11/10 06:02:51;;;;;;;3.43;1.53;;;;;;;12.90;61.98;100491.31;5072858;28;20408;-62
2021/11/10 06:05:19;;;;;;;3.53;1.60;;;;;;;12.84;61.95;100483.28;5054099;28;20076;-67
2021/11/10 06:07:46;;;;;;;3.23;2.03;;;;;;;12.88;61.95;100499.19;5070830;28;20539;-72
2021/11/10 06:10:15;;;;;;;3.97;1.53;;;;;;;12.89;61.73;100505.63;5064804;28;20057;-67
2021/11/10 06:12:42;;;;;;;3.80;1.47;;;;;;;12.83;61.73;100499.25;5068041;28;20079;-66
2021/11/10 06:15:10;;;;;;;2.27;1.37;;;;;;;12.74;61.74;100489.81;5068017;28;20131;-66
2021/11/10 06:17:37;;;;;;;3.03;1.73;;;;;;;12.74;61.99;100504.66;5082469;28;20052;-65
2021/11/10 06:20:05;;;;;;;2.70;1.57;;;;;;;12.75;61.66;100494.28;5077100;28;20045;-68
2021/11/10 06:22:33;;;;;;;5.10;1.60;;;;;;;12.88;61.02;100498.34;5067702;28;20106;-64
2021/11/10 06:25:01;;;;;;;0.90;0.90;;;;;;;12.98;60.03;100504.66;5054918;28;20107;-66
2021/11/10 06:27:28;;;;;;;2.10;1.27;;;;;;;13.13;59.18;100505.63;5069807;28;20162;-56
2021/11/10 06:29:55;;;;;;;2.03;1.23;;;;;;;13.17;58.55;100484.28;5074489;28;20448;-54
2021/11/10 06:32:22;;;;;;;4.17;1.20;;;;;;;13.36;57.42;100507.59;5072253;28;20554;-53
2021/11/10 06:34:49;;;;;;;5.97;1.60;;;;;;;13.40;57.04;100497.47;5061883;28;20117;-52
2021/11/10 06:37:16;;;;;;;2.67;1.40;;;;;;;13.56;56.58;100503.69;5054924;28;20132;-54
2021/11/10 06:39:43;;;;;;;2.77;0.87;;;;;;;13.49;56.52;100492.00;5074588;28;20136;-55
2021/11/10 06:42:10;;;;;;;3.40;1.73;;;;;;;13.60;56.03;100509.53;5074838;28;20098;-53
2021/11/10 06:44:37;;;;;;;3.43;1.80;;;;;;;13.56;55.81;100502.88;5068793;28;20171;-53
2021/11/10 06:47:04;;;;;;;3.87;1.97;;;;;;;13.63;55.78;100503.31;5077387;28;20242;-57
2021/11/10 06:49:32;;;;;;;2.80;1.53;;;;;;;13.68;55.48;100511.69;5075828;28;20075;-57
2021/11/10 06:51:59;;;;;;;2.97;1.30;;;;;;;13.69;55.37;100514.19;5056412;28;20040;-59
2021/11/10 06:54:27;;;;;;;2.67;1.73;;;;;;;13.65;55.35;100512.28;5081234;28;20540;-53
2021/11/10 06:56:54;;;;;;;5.93;1.90;;;;;;;13.66;55.11;100508.34;5057920;28;20127;-54
2021/11/10 06:59:21;;;;;;;3.63;1.33;;;;;;;13.73;54.90;100508.78;5072527;28;20072;-57
2021/11/10 07:01:48;;;;;;;2.40;1.57;;;;;;;13.69;55.29;100513.34;5073562;28;20138;-56
2021/11/10 07:04:15;;;;;;;3.63;1.70;;;;;;;13.69;55.30;100516.16;5076190;28;20048;-55
2021/11/10 07:06:42;;;;;;;3.30;1.53;;;;;;;13.58;55.42;100520.25;5072763;28;20585;-56
2021/11/10 07:09:09;;;;;;;3.47;1.90;;;;;;;13.40;55.65;100505.91;5071042;28;20040;-53
2021/11/10 07:11:36;;;;;;;3.97;2.07;;;;;;;13.43;55.83;100515.66;5074820;28;20132;-54
2021/11/10 07:14:05;;;;;;;4.03;2.17;;;;;;;13.34;55.85;100509.91;5071651;28;20068;-55
2021/11/10 07:16:33;;;;;;;4.27;2.00;;;;;;;13.43;55.82;100532.47;5076483;28;20142;-55
2021/11/10 07:19:02;;;;;;;1.25;1.05;;;;;;;13.34;56.54;100529.53;5073540;28;20055;-54
2021/11/10 07:21:30;;;;;;;2.67;0.90;;;;;;;13.30;56.44;100538.81;5071951;28;20131;-54
2021/11/10 07:23:56;;;;;;;5.70;2.23;;;;;;;13.31;56.18;100546.13;5071871;28;20143;-54
2021/11/10 07:26:23;;;;;;;4.27;2.27;;;;;;;13.38;56.01;100539.00;5071104;28;20082;-52
2021/11/10 07:28:52;;;;;;;3.97;1.90;;;;;;;13.49;55.95;100562.97;5067522;28;20425;-56
2021/11/10 07:31:19;;;;;;;5.90;2.47;;;;;;;13.50;56.02;100559.06;5070321;28;20096;-56
2021/11/10 07:33:47;;;;;;;7.50;2.70;;;;;;;13.50;56.00;100561.88;5074511;28;20049;-56
2021/11/10 07:36:14;;;;;;;6.40;2.30;;;;;;;13.58;56.07;100574.38;5078390;28;20080;-57
2021/11/10 07:38:41;;;;;;;4.53;2.33;;;;;;;13.68;55.80;100562.19;5070544;28;20068;-57
2021/11/10 07:41:13;;;;;;;4.23;2.33;;;;;;;13.93;55.43;100567.44;5071427;28;20044;-57
2021/11/10 07:43:39;;;;;;;7.97;2.80;;;;;;;14.33;54.84;100576.41;5065632;28;20095;-57
2021/11/10 07:46:13;;;;;;;7.80;4.13;;;;;;;14.69;54.52;100584.25;5070848;28;20071;-56
2021/11/10 07:48:43;;;;;;;8.03;2.60;;;;;;;14.96;53.71;100577.03;5072401;28;20148;-56
2021/11/10 07:51:10;;;;;;;5.23;2.40;;;;;;;15.08;53.04;100574.56;5070157;28;20234;-58
2021/11/10 07:53:37;;;;;;;2.63;1.20;;;;;;;15.15;52.48;100580.63;5069485;28;20123;-57
2021/11/10 07:56:05;;;;;;;5.13;1.90;;;;;;;15.32;51.64;100583.66;5070598;28;20774;-57
2021/11/10 07:58:34;;;;;;;4.60;1.80;;;;;;;15.55;51.15;100580.94;5070998;28;20127;-55
2021/11/10 08:01:01;;;;;;;4.17;2.00;;;;;;;15.84;50.50;100583.47;5069061;28;20137;-56
2021/11/10 08:03:28;;;;;;;5.30;2.07;;;;;;;16.23;50.44;100580.00;5072416;28;20384;-56
2021/11/10 08:05:56;;;;;;;7.70;2.87;;;;;;;16.77;49.56;100600.69;5083153;28;20504;-56
2021/11/10 08:08:24;;;;;;;4.97;1.70;;;;;;;17.02;48.66;100601.19;5075747;28;20189;-55
2021/11/10 08:10:53;;;;;;;11.10;2.33;;;;;;;17.19;48.22;100601.28;5079529;28;20106;-55
2021/11/10 08:13:20;;;;;;;3.10;1.80;;;;;;;17.69;47.88;100609.47;5071167;28;20385;-56
2021/11/10 08:15:49;;;;;;;6.28;1.98;;;;;;;18.28;47.44;100603.47;5069372;28;20500;-55
2021/11/10 08:18:16;;;;;;;4.75;1.80;;;;;;;18.72;46.63;100600.69;5071084;28;20128;-55
2021/11/10 08:20:44;;;;;;;3.55;1.90;;;;;;;19.02;45.84;100605.31;5064255;28;20099;-55
2021/11/10 08:23:19;;;;;;;4.85;1.90;;;;;;;19.08;44.73;100594.63;5079257;28;20594;-57
2021/11/10 08:25:48;;;;;;;3.85;1.95;;;;;;;18.99;43.31;100585.34;5073876;28;20091;-55
2021/11/10 08:28:15;;;;;;;5.38;2.15;;;;;;;19.10;43.11;100607.25;5071079;28;20453;-56
2021/11/10 08:30:42;;;;;;;4.38;2.00;;;;;;;19.37;42.83;100596.69;5082929;28;20072;-55
2021/11/10 08:33:09;;;;;;;5.30;1.90;;;;;;;19.68;42.48;100607.75;5091409;28;20080;-56
2021/11/10 08:35:36;;;;;;;3.55;2.10;;;;;;;19.75;41.92;100615.72;5066989;28;20082;-55
2021/11/10 08:38:03;;;;;;;4.13;2.50;;;;;;;19.91;41.50;100608.31;5071186;28;20088;-55
2021/11/10 08:40:31;;;;;;;5.72;2.47;;;;;;;20.21;41.23;100602.63;5067020;28;20065;-56
2021/11/10 08:42:58;;;;;;;9.50;3.58;;;;;;;20.64;40.81;100609.97;5053672;28;20072;-56
2021/11/10 08:45:28;;;;;;;6.97;3.00;;;;;;;20.98;40.52;100611.66;5065903;28;20524;-55
2021/11/10 08:47:57;;;;;;;11.40;4.22;;;;;;;21.00;39.91;100621.47;5051491;28;20077;-57
2021/11/10 08:50:27;;;;;;;8.85;3.72;;;;;;;20.86;39.34;100614.47;5058267;28;20044;-57
2021/11/10 08:52:55;;;;;;;9.63;3.65;;;;;;;20.89;39.27;100614.59;5070355;28;20094;-56
2021/11/10 08:55:22;;;;;;;9.32;4.00;;;;;;;20.95;38.84;100607.50;5071209;28;20084;-55
2021/11/10 08:57:52;;;;;;;8.20;3.95;;;;;;;21.57;39.08;100625.53;5075072;28;20044;-56
2021/11/10 09:00:24;;;;;;;11.35;4.20;;;;;;;22.19;38.53;100626.44;5075063;28;20048;-57
2021/11/10 09:02:53;;;;;;;7.28;3.72;;;;;;;23.05;38.17;100634.72;5072293;28;20044;-55
2021/11/10 09:05:20;;;;;;;6.20;3.45;;;;;;;23.83;37.93;100628.31;5059436;28;20045;-56
2021/11/10 09:07:47;;;;;;;6.88;3.05;;;;;;;24.32;36.33;100636.41;5055069;28;20072;-57
2021/11/10 09:10:18;;;;;;;7.13;2.60;;;;;;;25.00;36.30;100637.13;5062055;28;20043;-56
2021/11/10 09:12:45;;;;;;;8.40;3.15;;;;;;;25.68;35.44;100649.91;5074965;28;20302;-56
2021/11/10 09:15:14;;;;;;;6.05;3.35;;;;;;;26.58;35.08;100641.56;5084070;28;20280;-57
2021/11/10 09:17:42;;;;;;;6.35;3.00;;;;;;;27.41;33.76;100646.31;5076593;28;20602;-56
2021/11/10 09:20:12;;;;;;;6.18;3.63;;;;;;;28.22;32.26;100638.88;5077517;28;20123;-56
2021/11/10 09:22:40;;;;;;;7.20;4.03;;;;;;;28.81;31.35;100634.72;5089796;28;20476;-57
2021/11/10 09:25:09;;;;;;;6.50;3.90;;;;;;;29.35;30.35;100646.47;5076950;28;20124;-56
2021/11/10 09:27:36;;;;;;;7.80;4.57;;;;;;;29.62;30.25;100644.06;5081786;28;20122;-62
2021/11/10 09:30:05;;;;;;;5.82;2.55;;;;;;;29.84;29.28;100644.91;5074378;28;20127;-62
2021/11/10 09:32:32;;;;;;;6.25;2.88;;;;;;;29.60;29.57;100657.22;5077151;28;20132;-62
2021/11/10 09:34:59;;;;;;;8.30;3.80;;;;;;;29.07;28.87;100660.75;5077446;28;20072;-63
2021/11/10 09:37:27;;;;;;;5.07;2.50;;;;;;;28.58;29.02;100660.91;5074186;28;20136;-63
2021/11/10 09:39:54;;;;;;;7.05;3.20;;;;;;;28.45;29.54;100655.88;5074129;28;20083;-65
2021/11/10 09:42:24;;;;;;;7.28;3.05;;;;;;;28.60;28.79;100651.03;5067748;28;20128;-66
2021/11/10 09:44:54;;;;;;;5.32;2.78;;;;;;;28.83;29.01;100642.97;5073155;28;20131;-64
2021/11/10 09:47:21;;;;;;;8.02;3.03;;;;;;;29.01;29.20;100663.19;5079729;28;20131;-64
2021/11/10 09:49:50;;;;;;;7.45;3.22;;;;;;;29.31;28.37;100651.38;5078298;28;20048;-63
2021/11/10 09:52:18;;;;;;;6.40;2.85;;;;;;;29.30;27.85;100638.25;5072872;28;20123;-62
2021/11/10 09:54:45;;;;;;;5.22;2.83;;;;;;;29.46;27.87;100641.53;5060617;28;20067;-61
2021/11/10 09:57:12;;;;;;;4.30;3.00;;;;;;;29.68;27.69;100653.13;5073261;28;20140;-59
2021/11/10 09:59:39;;;;;;;6.80;2.97;;;;;;;29.97;27.19;100660.53;5083971;28;20048;-62
2021/11/10 10:02:27;;;;;;;4.28;2.60;;;;;;;29.48;26.78;100639.09;5089082;28;20452;-61
2021/11/10 10:04:54;;;;;;;4.40;2.60;;;;;;;29.46;27.14;100650.16;5091044;28;20074;-59
2021/11/10 10:07:23;;;;;;;4.45;3.35;;;;;;;29.39;26.75;100638.66;5085963;28;20048;-58
2021/11/10 10:09:50;;;;;;;6.37;4.47;;;;;;;29.52;26.78;100639.91;5084949;28;20127;-58
2021/11/10 10:12:19;;;;;;;8.02;3.33;;;;;;;29.90;26.49;100643.28;5084183;28;20154;-59
2021/11/10 10:14:49;;;;;;;5.65;3.30;;;;;;;29.88;26.24;100633.38;5065404;28;20071;-57
2021/11/10 10:17:37;;;;;;;5.97;3.13;;;;;;;29.89;26.81;100644.50;5083167;28;20083;-60
2021/11/10 10:20:06;;;;;;;6.03;3.28;;;;;;;29.91;25.93;100636.28;5076405;28;20136;-60
2021/11/10 10:22:33;;;;;;;3.80;3.03;;;;;;;29.60;25.72;100640.78;5074076;28;20107;-63
2021/11/10 10:25:00;;;;;;;5.32;3.08;;;;;;;29.47;25.80;100648.13;5067445;28;20567;-64
2021/11/10 10:27:33;;;;;;;5.13;2.90;;;;;;;29.71;25.89;100635.03;5071340;28;20056;-61
2021/11/10 10:30:24;;;;;;;6.70;2.80;;;;;;;29.96;26.04;100650.28;5063068;28;20087;-57
2021/11/10 10:32:56;;;;;;;7.10;2.92;;;;;;;30.14;25.64;100644.50;5077994;28;20072;-58
2021/11/10 10:35:33;;;;;;;3.97;2.90;;;;;;;29.71;25.03;100617.75;5070977;28;20112;-59
2021/11/10 10:38:01;;;;;;;3.78;3.28;;;;;;;29.70;25.35;100647.78;5071726;28;20079;-59
2021/11/10 10:40:30;;;;;;;6.38;3.15;;;;;;;29.50;24.65;100639.53;5071318;28;20484;-58
2021/11/10 10:42:57;;;;;;;3.83;3.40;;;;;;;28.97;25.11;100659.44;5069532;28;20128;-56
2021/11/10 10:45:47;;;;;;;6.00;2.97;;;;;;;27.88;24.91;100621.78;5072112;28;20044;-58
2021/11/10 10:48:20;;;;;;;8.10;3.92;;;;;;;28.19;25.56;100648.28;5072349;28;20127;-58
2021/11/10 10:50:56;;;;;;;6.13;3.70;;;;;;;28.81;25.50;100651.16;5071189;28;20128;-57
2021/11/10 10:53:45;;;;;;;6.03;3.47;;;;;;;29.02;25.18;100645.50;5069811;28;20036;-58
2021/11/10 10:56:36;;;;;;;5.85;3.75;;;;;;;28.87;25.26;100645.84;5065293;28;20087;-63
2021/11/10 10:59:09;;;;;;;7.68;4.07;;;;;;;29.34;25.31;100647.69;5070948;28;20037;-58
2021/11/10 11:01:40;;;;;;;4.93;3.10;;;;;;;29.72;24.80;100633.81;5071330;28;20135;-58
2021/11/10 11:04:14;;;;;;;7.88;4.07;;;;;;;29.27;24.21;100636.16;5070545;28;20094;-58
2021/11/10 11:06:48;;;;;;;5.65;4.00;;;;;;;29.00;24.39;100635.66;5064196;28;20131;-57
2021/11/10 11:09:28;;;;;;;4.70;3.40;;;;;;;28.92;24.45;100629.00;5082337;28;20492;-57
2021/11/10 11:12:01;;;;;;;6.10;4.28;;;;;;;29.28;23.91;100634.94;5066465;28;20071;-59
2021/11/10 11:17:18;;;;;;;5.93;3.53;;;;;;;30.50;23.67;100629.25;5077363;28;20162;-57
2021/11/10 11:19:58;;;;;;;4.07;3.58;;;;;;;30.82;23.30;100621.34;5066014;28;20136;-59
2021/11/10 11:22:32;;;;;;;6.97;3.95;;;;;;;31.13;22.33;100621.63;5068099;28;20076;-58
2021/11/10 11:25:20;;;;;;;7.55;3.88;;;;;;;31.58;22.69;100624.66;5074815;28;20080;-58
2021/11/10 11:28:09;;;;;;;8.27;4.32;;;;;;;31.14;22.45;100621.19;5064141;28;20044;-58
2021/11/10 11:30:37;;;;;;;10.60;4.60;;;;;;;31.55;21.95;100603.22;5044458;28;20067;-59